Time;durP1;ratioP1;P1;durP2;ratioP2;P2;SDS_P1;SDS_P2;PMS_P1;PMS_P2;Temp;Humidity;BMP_temperature;BMP_pressure;BME280_temperature;BME280_humidity;BME280_pressure;Samples;Min_cycle;Max_cycle;Signal;HPM_P1;HPM_P2
2023/12/20 00:01:17;;;;;;;17.25;8.77;;;;;;;4.00;100.00;98884.25;5042725;28;20033;-80
2023/12/20 00:03:42;;;;;;;14.65;7.40;;;;;;;3.70;100.00;98832.09;5044881;28;20082;-81
2023/12/20 00:06:08;;;;;;;16.55;7.85;;;;;;;4.13;100.00;98900.72;5063830;28;20021;-79
2023/12/20 00:08:34;;;;;;;13.65;7.30;;;;;;;4.00;100.00;98878.91;5049984;28;20025;-79
2023/12/20 00:10:59;;;;;;;14.95;7.47;;;;;;;4.03;100.00;98886.63;5045195;28;20091;-79
2023/12/20 00:13:24;;;;;;;12.95;7.28;;;;;;;4.04;100.00;98896.34;5062974;28;20096;-81
2023/12/20 00:15:49;;;;;;;13.15;6.82;;;;;;;3.87;100.00;98862.44;5045597;28;20021;-79
2023/12/20 00:18:15;;;;;;;14.23;7.00;;;;;;;3.95;100.00;98876.69;5068405;28;20048;-82
2023/12/20 00:20:40;;;;;;;12.80;7.55;;;;;;;3.97;100.00;98870.38;5044818;28;20017;-79
2023/12/20 00:23:05;;;;;;;11.23;6.80;;;;;;;3.99;100.00;98869.22;5062697;28;20029;-80
2023/12/20 00:25:31;;;;;;;10.63;6.93;;;;;;;3.89;100.00;98855.94;5043907;28;20104;-79
2023/12/20 00:27:56;;;;;;;12.57;7.10;;;;;;;3.93;100.00;98857.31;5044050;28;20218;-79
2023/12/20 00:30:21;;;;;;;17.55;8.40;;;;;;;3.76;100.00;98833.28;5043996;28;20048;-79
2023/12/20 00:32:47;;;;;;;16.63;9.20;;;;;;;3.74;100.00;98834.28;5061872;28;20208;-80
2023/12/20 00:35:16;;;;;;;16.02;8.88;;;;;;;3.91;100.00;98863.81;5044438;28;20029;-79
2023/12/20 00:37:42;;;;;;;18.77;10.38;;;;;;;3.81;100.00;98837.16;5053723;28;20199;-79
2023/12/20 00:40:09;;;;;;;19.25;11.25;;;;;;;3.81;100.00;98847.88;5065738;28;20034;-80
2023/12/20 00:42:35;;;;;;;20.83;11.10;;;;;;;3.88;100.00;98866.81;5080214;28;20233;-79
2023/12/20 00:45:00;;;;;;;20.35;9.80;;;;;;;3.77;100.00;98856.38;5064785;28;20025;-82
2023/12/20 00:47:26;;;;;;;18.90;10.30;;;;;;;3.55;100.00;98833.69;5051365;28;20044;-84
2023/12/20 00:49:51;;;;;;;16.20;9.27;;;;;;;3.63;100.00;98834.56;5047689;28;20099;-80
2023/12/20 00:52:17;;;;;;;19.17;10.40;;;;;;;3.70;100.00;98851.66;5065471;28;20055;-79
2023/12/20 00:54:43;;;;;;;19.65;10.32;;;;;;;3.79;100.00;98865.09;5052993;28;20017;-79
2023/12/20 00:57:09;;;;;;;16.50;9.52;;;;;;;3.89;100.00;98879.19;5049539;28;20025;-79
2023/12/20 00:59:34;;;;;;;17.77;10.52;;;;;;;3.82;100.00;98859.41;5064455;28;20174;-80
2023/12/20 01:01:59;;;;;;;19.23;10.05;;;;;;;3.76;100.00;98857.38;5065340;28;20094;-80
2023/12/20 01:04:25;;;;;;;19.30;10.40;;;;;;;3.77;100.00;98854.53;5056531;28;20020;-80
2023/12/20 01:06:50;;;;;;;15.75;9.38;;;;;;;3.73;100.00;98856.69;5047529;28;20100;-80
2023/12/20 01:09:15;;;;;;;17.55;9.18;;;;;;;3.81;100.00;98852.38;5061321;28;20027;-80
2023/12/20 01:11:40;;;;;;;16.60;9.18;;;;;;;3.92;100.00;98873.53;5064592;28;20084;-80
2023/12/20 01:14:06;;;;;;;18.13;9.07;;;;;;;3.79;100.00;98855.22;5047665;28;20025;-80
2023/12/20 01:16:31;;;;;;;16.88;9.75;;;;;;;3.58;100.00;98831.50;5047658;28;20035;-83
2023/12/20 01:18:56;;;;;;;21.73;10.38;;;;;;;3.86;100.00;98855.44;5065071;28;20025;-80
2023/12/20 01:21:22;;;;;;;18.08;10.52;;;;;;;3.82;100.00;98859.41;5043597;28;20104;-80
2023/12/20 01:23:47;;;;;;;18.05;9.60;;;;;;;3.69;100.00;98855.34;5045922;28;20060;-79
2023/12/20 01:26:12;;;;;;;18.40;8.90;;;;;;;3.81;100.00;98868.44;5065305;28;20025;-80
2023/12/20 01:28:38;;;;;;;17.75;9.75;;;;;;;3.75;100.00;98867.25;5047144;28;20029;-80
2023/12/20 01:31:03;;;;;;;17.05;9.63;;;;;;;3.70;100.00;98874.91;5055264;28;20028;-79
2023/12/20 01:33:29;;;;;;;18.10;9.43;;;;;;;3.64;100.00;98872.84;5069038;28;20295;-80
2023/12/20 01:35:54;;;;;;;17.45;9.60;;;;;;;3.54;100.00;98864.09;5065161;28;20080;-80
2023/12/20 01:38:20;;;;;;;22.63;9.90;;;;;;;3.71;100.00;98874.72;5064769;28;20028;-81
2023/12/20 01:40:45;;;;;;;18.35;10.07;;;;;;;3.67;100.00;98872.56;5050928;28;20048;-80
2023/12/20 01:43:12;;;;;;;17.60;9.43;;;;;;;3.63;100.00;98865.81;5070148;28;20035;-80
2023/12/20 01:45:37;;;;;;;15.90;8.90;;;;;;;3.72;100.00;98868.41;5069677;28;20062;-80
2023/12/20 01:48:04;;;;;;;17.83;10.65;;;;;;;3.85;100.00;98886.72;5066818;28;20595;-80
2023/12/20 01:50:31;;;;;;;19.25;9.85;;;;;;;3.82;100.00;98880.81;5074216;28;20017;-83
2023/12/20 01:53:00;;;;;;;20.35;10.60;;;;;;;3.79;100.00;98865.09;5068060;28;20052;-83
2023/12/20 01:55:27;;;;;;;20.83;9.98;;;;;;;3.71;100.00;98861.34;5045696;28;20047;-80
2023/12/20 01:57:53;;;;;;;17.98;10.50;;;;;;;3.77;100.00;98872.44;5052325;28;20048;-81
2023/12/20 02:00:23;;;;;;;17.83;9.95;;;;;;;3.80;100.00;98856.91;5065004;28;20035;-81
2023/12/20 02:02:50;;;;;;;18.70;10.35;;;;;;;3.89;100.00;98861.28;5066632;28;20110;-80
2023/12/20 02:05:16;;;;;;;14.48;8.52;;;;;;;4.03;100.00;98867.03;5065117;28;20267;-80
2023/12/20 02:07:42;;;;;;;15.10;8.50;;;;;;;4.11;100.00;98864.41;5064474;28;20060;-80
2023/12/20 02:10:07;;;;;;;14.10;7.38;;;;;;;4.16;100.00;98856.72;5053165;28;20028;-80
2023/12/20 02:12:33;;;;;;;8.40;4.75;;;;;;;4.14;100.00;98838.16;5080161;28;20021;-80
2023/12/20 02:14:58;;;;;;;8.07;3.83;;;;;;;4.38;100.00;98849.97;5060870;28;20092;-80
2023/12/20 02:17:25;;;;;;;4.78;2.70;;;;;;;4.55;100.00;98862.38;5063797;28;20025;-80
2023/12/20 02:19:50;;;;;;;6.10;3.10;;;;;;;4.60;100.00;98848.50;5056447;28;20020;-80
2023/12/20 02:22:15;;;;;;;4.00;2.28;;;;;;;4.63;100.00;98852.69;5083657;28;20195;-81
2023/12/20 02:24:41;;;;;;;2.53;1.50;;;;;;;4.78;100.00;98857.25;5040400;28;20222;-83
2023/12/20 02:27:07;;;;;;;2.13;1.50;;;;;;;4.94;100.00;98860.97;5066716;28;20024;-80
2023/12/20 02:29:34;;;;;;;1.40;1.00;;;;;;;4.98;100.00;98863.16;5062409;28;20066;-80
2023/12/20 02:31:59;;;;;;;4.43;1.15;;;;;;;4.90;100.00;98849.75;5044328;28;20063;-81
2023/12/20 02:34:24;;;;;;;0.88;0.70;;;;;;;5.02;100.00;98867.16;5053074;28;20017;-80
2023/12/20 02:36:50;;;;;;;0.95;0.68;;;;;;;4.94;100.00;98851.06;5060527;28;20028;-81
2023/12/20 02:39:15;;;;;;;1.13;0.60;;;;;;;4.95;100.00;98834.00;5048493;28;20020;-81
2023/12/20 02:41:40;;;;;;;1.27;0.63;;;;;;;4.96;100.00;98838.34;5065663;28;20059;-81
2023/12/20 02:44:06;;;;;;;1.23;0.70;;;;;;;4.98;100.00;98847.06;5071975;28;20024;-80
2023/12/20 02:46:31;;;;;;;2.25;0.77;;;;;;;4.89;100.00;98833.81;5049065;28;20037;-82
2023/12/20 02:48:56;;;;;;;0.40;0.40;;;;;;;4.94;100.00;98837.66;5066213;28;20040;-80
2023/12/20 02:51:21;;;;;;;1.13;0.65;;;;;;;4.95;100.00;98847.41;5063080;28;20022;-80
2023/12/20 02:53:47;;;;;;;1.73;0.68;;;;;;;5.04;100.00;98850.91;5036665;28;20380;-80
2023/12/20 02:56:13;;;;;;;1.30;0.57;;;;;;;4.82;100.00;98828.25;5051347;28;20040;-81
2023/12/20 02:58:38;;;;;;;1.13;0.60;;;;;;;4.93;100.00;98844.03;5043300;28;20107;-81
2023/12/20 03:01:04;;;;;;;1.05;0.60;;;;;;;4.84;100.00;98834.31;5056809;28;20036;-83
2023/12/20 03:03:29;;;;;;;0.68;0.50;;;;;;;4.91;100.00;98861.28;5055257;28;20024;-81
2023/12/20 03:05:55;;;;;;;0.50;0.50;;;;;;;4.78;100.00;98834.97;5071448;28;20024;-81
2023/12/20 03:08:20;;;;;;;0.70;0.50;;;;;;;4.81;100.00;98842.69;5073437;28;20028;-81
2023/12/20 03:10:46;;;;;;;0.95;0.73;;;;;;;4.83;100.00;98848.72;5052566;28;20013;-82
2023/12/20 03:13:11;;;;;;;0.80;0.50;;;;;;;4.83;100.00;98851.41;5048220;28;20282;-81
2023/12/20 03:15:37;;;;;;;1.13;0.50;;;;;;;4.76;100.00;98858.41;5047724;28;20024;-81
2023/12/20 03:18:02;;;;;;;0.65;0.43;;;;;;;4.60;100.00;98838.63;5047770;28;20017;-81
2023/12/20 03:20:28;;;;;;;0.63;0.28;;;;;;;4.68;100.00;98853.03;5049232;28;20076;-81
2023/12/20 03:22:53;;;;;;;2.70;0.50;;;;;;;4.81;100.00;98873.00;5064724;28;20024;-81
2023/12/20 03:25:18;;;;;;;0.63;0.40;;;;;;;4.49;100.00;98830.91;5066289;28;20043;-81
2023/12/20 03:27:43;;;;;;;0.50;0.35;;;;;;;4.60;100.00;98848.50;5065378;28;20026;-81
2023/12/20 03:30:09;;;;;;;0.85;0.40;;;;;;;4.63;100.00;98852.69;5048217;28;20021;-81
2023/12/20 03:32:34;;;;;;;0.77;0.40;;;;;;;4.61;100.00;98855.53;5049897;28;20036;-80
2023/12/20 03:35:00;;;;;;;0.38;0.32;;;;;;;4.73;100.00;98872.97;5048550;28;20021;-84
2023/12/20 03:37:25;;;;;;;0.73;0.40;;;;;;;4.67;100.00;98849.53;5039134;28;20044;-81
2023/12/20 03:39:50;;;;;;;1.13;0.50;;;;;;;4.63;100.00;98858.88;5030157;28;20056;-81
2023/12/20 03:42:16;;;;;;;0.50;0.30;;;;;;;4.60;100.00;98852.00;5047397;28;20029;-81
2023/12/20 03:44:41;;;;;;;0.38;0.30;;;;;;;4.63;100.00;98856.22;5049244;28;20024;-81
2023/12/20 03:47:06;;;;;;;1.25;0.40;;;;;;;4.54;100.00;98846.50;5050976;28;20028;-81
2023/12/20 03:49:32;;;;;;;0.95;0.45;;;;;;;4.52;100.00;98835.91;5058397;28;20017;-81
2023/12/20 03:51:57;;;;;;;0.30;0.22;;;;;;;4.53;100.00;98847.47;5066051;28;20059;-81
2023/12/20 03:54:22;;;;;;;0.65;0.38;;;;;;;4.68;100.00;98877.16;5047328;28;20021;-83
2023/12/20 03:56:48;;;;;;;1.35;0.50;;;;;;;4.52;100.00;98841.28;5044037;28;20032;-81
2023/12/20 03:59:14;;;;;;;1.13;0.50;;;;;;;4.65;100.00;98856.88;5047099;28;20012;-81
2023/12/20 04:01:43;;;;;;;0.75;0.40;;;;;;;4.54;100.00;98852.69;5047467;28;20067;-80
2023/12/20 04:04:08;;;;;;;;;;;;;;;4.77;100.00;98894.97;5066233;28;20024;-80
2023/12/20 04:06:34;;;;;;;1.10;0.60;;;;;;;4.64;100.00;98875.81;5049313;28;19975;-81
2023/12/20 04:08:59;;;;;;;0.60;0.30;;;;;;;4.51;100.00;98844.16;5047722;28;20084;-81
2023/12/20 04:11:25;;;;;;;0.88;0.47;;;;;;;4.35;100.00;98818.16;5050991;28;20105;-82
2023/12/20 04:13:50;;;;;;;0.77;0.60;;;;;;;4.64;100.00;98873.13;5051655;28;20214;-81
2023/12/20 04:16:15;;;;;;;0.52;0.35;;;;;;;4.48;100.00;98847.13;5053012;28;20029;-81
2023/12/20 04:18:41;;;;;;;0.85;0.50;;;;;;;4.49;100.00;98863.03;5051071;28;20075;-84
2023/12/20 04:21:07;;;;;;;1.02;0.63;;;;;;;4.36;100.00;98839.41;5058178;28;20028;-81
2023/12/20 04:23:32;;;;;;;0.40;0.32;;;;;;;4.56;100.00;98864.09;5049980;28;20342;-81
2023/12/20 04:25:57;;;;;;;0.50;0.40;;;;;;;4.38;100.00;98849.97;5050813;28;20031;-81
2023/12/20 04:28:22;;;;;;;0.60;0.40;;;;;;;4.56;100.00;98893.56;5051898;28;20025;-81
2023/12/20 04:30:48;;;;;;;0.82;0.40;;;;;;;4.51;100.00;98871.78;5115334;22;20064;-76
2023/12/20 04:33:13;;;;;;;0.68;0.40;;;;;;;4.53;100.00;98901.91;5080005;28;20319;-79
2023/12/20 04:35:40;;;;;;;0.47;0.40;;;;;;;4.55;100.00;98910.63;5063943;28;20024;-75
2023/12/20 04:38:06;;;;;;;0.30;0.30;;;;;;;4.60;100.00;98918.16;5093945;28;20082;-74
2023/12/20 04:40:31;;;;;;;1.00;0.57;;;;;;;4.50;100.00;98904.91;5074147;28;20028;-74
2023/12/20 04:42:56;;;;;;;0.60;0.40;;;;;;;4.66;100.00;98914.81;5057261;28;20264;-74
2023/12/20 04:45:23;;;;;;;1.00;0.70;;;;;;;4.59;100.00;98903.94;5083433;28;20031;-74
2023/12/20 04:47:48;;;;;;;0.88;0.55;;;;;;;4.67;100.00;98911.16;5050459;28;20032;-74
2023/12/20 04:50:14;;;;;;;1.25;0.70;;;;;;;4.63;100.00;98908.97;5079182;28;20401;-74
2023/12/20 04:52:39;;;;;;;0.88;0.50;;;;;;;4.60;100.00;98902.94;5081407;28;20020;-74
2023/12/20 04:55:05;;;;;;;0.75;0.47;;;;;;;4.70;100.00;98924.22;5075778;28;20029;-76
2023/12/20 04:57:30;;;;;;;0.98;0.60;;;;;;;4.70;100.00;98916.19;5078259;28;20031;-75
2023/12/20 04:59:56;;;;;;;1.58;0.80;;;;;;;4.60;100.00;98904.78;5059936;28;20343;-75
2023/12/20 05:02:21;;;;;;;1.85;0.90;;;;;;;4.68;100.00;98910.16;5079484;28;20028;-76
2023/12/20 05:04:46;;;;;;;2.70;0.88;;;;;;;4.58;100.00;98888.88;5068122;28;20073;-76
2023/12/20 05:07:12;;;;;;;1.45;0.82;;;;;;;4.68;100.00;98909.31;5066141;28;20382;-76
2023/12/20 05:09:37;;;;;;;1.20;0.70;;;;;;;4.60;100.00;98910.13;5085640;28;20373;-79
2023/12/20 05:12:02;;;;;;;1.17;0.90;;;;;;;4.69;100.00;98916.34;5070824;28;20042;-78
2023/12/20 05:14:28;;;;;;;1.48;0.88;;;;;;;4.74;100.00;98935.47;5082605;28;20044;-75
2023/12/20 05:16:53;;;;;;;1.38;0.88;;;;;;;4.72;100.00;98932.13;5076860;28;20288;-75
2023/12/20 05:19:18;;;;;;;1.38;0.90;;;;;;;4.71;100.00;98933.94;5063203;28;20016;-75
2023/12/20 05:21:44;;;;;;;1.63;1.00;;;;;;;4.64;100.00;98916.00;5047673;28;20028;-76
2023/12/20 05:24:09;;;;;;;1.38;1.10;;;;;;;4.68;100.00;98912.00;5057842;28;20024;-75
2023/12/20 05:26:34;;;;;;;2.40;1.33;;;;;;;4.72;100.00;98905.31;5080619;28;20095;-77
2023/12/20 05:29:00;;;;;;;2.00;1.20;;;;;;;4.76;100.00;98920.91;5084851;28;20020;-75
2023/12/20 05:31:25;;;;;;;1.90;1.40;;;;;;;4.94;100.00;98941.38;5078600;28;20020;-75
2023/12/20 05:33:50;;;;;;;3.78;1.60;;;;;;;4.95;100.00;98935.00;5062053;28;20029;-74
2023/12/20 05:36:16;;;;;;;2.33;1.70;;;;;;;4.80;100.00;98934.81;5074752;28;20025;-74
2023/12/20 05:38:41;;;;;;;3.65;1.95;;;;;;;4.89;100.00;98955.28;5084106;28;20032;-74
2023/12/20 05:41:06;;;;;;;2.70;1.58;;;;;;;4.82;100.00;98932.78;5080452;28;20040;-74
2023/12/20 05:43:32;;;;;;;2.53;1.60;;;;;;;4.92;100.00;98954.13;5074966;28;20478;-74
2023/12/20 05:45:58;;;;;;;3.38;2.00;;;;;;;4.90;100.00;98965.03;5078438;28;20027;-74
2023/12/20 05:48:23;;;;;;;3.78;1.90;;;;;;;4.86;100.00;98960.97;5083239;28;20296;-74
2023/12/20 05:50:49;;;;;;;2.47;1.80;;;;;;;4.91;100.00;98974.72;5081710;28;20214;-75
2023/12/20 05:53:14;;;;;;;2.35;1.85;;;;;;;4.95;100.00;98980.59;5078610;28;20032;-77
2023/12/20 05:55:40;;;;;;;2.70;1.80;;;;;;;4.87;100.00;98972.53;5063928;28;20070;-76
2023/12/20 05:58:05;;;;;;;2.38;1.70;;;;;;;4.86;100.00;98977.06;5069244;28;20066;-74
2023/12/20 06:00:30;;;;;;;2.80;1.80;;;;;;;4.87;100.00;98975.22;5081767;28;20032;-75
2023/12/20 06:02:55;;;;;;;2.90;1.90;;;;;;;4.91;100.00;98984.63;5068483;28;20036;-75
2023/12/20 06:05:21;;;;;;;4.10;1.80;;;;;;;4.86;100.00;98982.41;5067631;28;20032;-75
2023/12/20 06:07:48;;;;;;;2.88;1.83;;;;;;;4.80;100.00;98983.06;5067210;28;20020;-75
2023/12/20 06:10:13;;;;;;;3.08;1.80;;;;;;;4.87;100.00;99000.16;5058442;28;20017;-73
2023/12/20 06:12:39;;;;;;;2.33;1.40;;;;;;;4.85;100.00;98991.47;5081771;28;20096;-74
2023/12/20 06:15:05;;;;;;;2.35;1.52;;;;;;;4.89;100.00;98982.09;5089148;28;20036;-74
2023/12/20 06:17:31;;;;;;;3.80;1.92;;;;;;;4.81;100.00;98987.41;5076171;28;20092;-78
2023/12/20 06:19:56;;;;;;;3.67;2.20;;;;;;;4.92;100.00;98997.84;5081745;28;20017;-78
2023/12/20 06:22:21;;;;;;;3.60;2.22;;;;;;;4.91;100.00;98995.34;5061304;28;20024;-78
2023/12/20 06:24:47;;;;;;;3.40;2.08;;;;;;;4.80;100.00;99005.34;5056421;28;20123;-78
2023/12/20 06:27:12;;;;;;;3.67;1.98;;;;;;;4.79;100.00;99001.00;5064321;28;20025;-79
2023/12/20 06:29:38;;;;;;;3.28;2.00;;;;;;;4.85;100.00;99010.25;5048937;28;20020;-78
2023/12/20 06:32:03;;;;;;;4.47;2.53;;;;;;;4.90;100.00;99007.03;5067081;28;20021;-78
2023/12/20 06:34:29;;;;;;;4.25;2.05;;;;;;;4.87;100.00;99005.53;5065467;28;20122;-76
2023/12/20 06:36:54;;;;;;;4.28;2.70;;;;;;;4.80;100.00;98996.47;5068145;28;20058;-75
2023/12/20 06:39:19;;;;;;;5.28;2.50;;;;;;;4.87;100.00;99005.53;5077505;28;20325;-75
2023/12/20 06:41:45;;;;;;;4.38;2.45;;;;;;;4.83;100.00;98999.66;5084097;28;20031;-75
2023/12/20 06:44:10;;;;;;;3.67;2.30;;;;;;;4.98;100.00;99012.47;5067650;28;20325;-76
2023/12/20 06:46:35;;;;;;;4.00;2.42;;;;;;;5.00;100.00;99013.97;5062749;28;20320;-78
2023/12/20 06:49:00;;;;;;;3.25;2.22;;;;;;;4.95;100.00;99008.25;5060451;28;20027;-76
2023/12/20 06:51:26;;;;;;;6.72;2.83;;;;;;;4.98;100.00;99017.81;5068248;28;20314;-78
2023/12/20 06:53:52;;;;;;;5.22;2.92;;;;;;;5.03;100.00;99018.16;5070085;28;20016;-77
2023/12/20 06:56:17;;;;;;;5.00;3.05;;;;;;;4.91;100.00;99009.59;5066907;28;20099;-77
2023/12/20 06:58:43;;;;;;;5.32;3.30;;;;;;;5.07;100.00;99026.72;5068860;28;20017;-77
2023/12/20 07:01:15;;;;;;;4.43;3.03;;;;;;;4.96;100.00;99017.97;5082840;28;20032;-76
2023/12/20 07:03:40;;;;;;;5.45;3.80;;;;;;;4.96;100.00;99014.47;5079455;28;20032;-77
2023/12/20 07:06:06;;;;;;;5.97;3.50;;;;;;;4.89;100.00;99022.31;5057758;28;20012;-76
2023/12/20 07:08:31;;;;;;;5.10;3.53;;;;;;;4.81;100.00;98995.47;5056088;28;23620;-76
2023/12/20 07:10:57;;;;;;;5.13;3.58;;;;;;;4.98;100.00;99034.75;5079221;28;20066;-76
2023/12/20 07:13:22;;;;;;;5.55;3.70;;;;;;;5.08;100.00;99044.47;5056541;28;20337;-77
2023/12/20 07:15:48;;;;;;;5.38;3.70;;;;;;;5.06;100.00;99031.25;5078544;28;20021;-76
2023/12/20 07:18:13;;;;;;;8.20;3.90;;;;;;;5.18;100.00;99053.25;5073418;28;20025;-76
2023/12/20 07:20:39;;;;;;;5.80;3.97;;;;;;;5.13;100.00;99067.13;5051500;28;20027;-77
2023/12/20 07:23:04;;;;;;;6.43;3.40;;;;;;;5.17;100.00;99064.97;5065291;28;20252;-75
2023/12/20 07:25:32;;;;;;;5.07;3.35;;;;;;;4.94;100.00;99041.41;5078996;28;20317;-75
2023/12/20 07:27:57;;;;;;;5.43;3.72;;;;;;;5.13;100.00;99058.25;5051291;28;20043;-75
2023/12/20 07:30:23;;;;;;;6.13;3.95;;;;;;;5.14;100.00;99051.91;5071896;28;20318;-76
2023/12/20 07:32:48;;;;;;;4.75;3.40;;;;;;;5.21;100.00;99075.22;5058940;28;20028;-77
2023/12/20 07:35:15;;;;;;;7.28;3.33;;;;;;;5.20;100.00;99083.44;5063288;28;20021;-77
2023/12/20 07:37:40;;;;;;;6.88;4.25;;;;;;;5.27;100.00;99081.78;5064061;28;20381;-77
2023/12/20 07:40:06;;;;;;;9.60;5.00;;;;;;;5.20;100.00;99076.22;5076396;28;20029;-75
2023/12/20 07:42:32;;;;;;;6.82;3.80;;;;;;;5.20;100.00;99078.06;5054804;28;20017;-76
2023/12/20 07:44:58;;;;;;;6.35;4.57;;;;;;;5.21;100.00;99074.38;5087508;28;20028;-75
2023/12/20 07:47:25;;;;;;;5.18;3.30;;;;;;;5.12;100.00;99062.78;5073471;28;20024;-75
2023/12/20 07:49:51;;;;;;;6.82;4.20;;;;;;;5.26;100.00;99085.44;5071719;28;20012;-74
2023/12/20 07:52:17;;;;;;;9.90;4.88;;;;;;;5.12;100.00;99059.25;5070334;28;20028;-76
2023/12/20 07:54:42;;;;;;;12.93;7.13;;;;;;;5.34;100.00;99085.47;5078076;28;20028;-75
2023/12/20 07:57:07;;;;;;;6.43;4.07;;;;;;;5.27;100.00;99090.66;5074979;28;20028;-75
2023/12/20 07:59:33;;;;;;;7.45;3.58;;;;;;;5.38;100.00;99094.88;5071155;28;20024;-75
2023/12/20 08:01:58;;;;;;;5.60;3.50;;;;;;;5.32;100.00;99089.31;5072031;28;20063;-75
2023/12/20 08:04:23;;;;;;;7.45;4.50;;;;;;;5.31;100.00;99084.97;5055207;28;20063;-74
2023/12/20 08:06:50;;;;;;;5.20;3.72;;;;;;;5.38;100.00;99083.31;5045531;28;20044;-78
2023/12/20 08:09:15;;;;;;;4.65;3.17;;;;;;;5.43;100.00;99079.16;5049008;28;20012;-75
2023/12/20 08:11:45;;;;;;;4.20;3.15;;;;;;;5.44;100.00;99072.75;5051586;28;20454;-79
2023/12/20 08:14:11;;;;;;;4.07;3.08;;;;;;;5.39;100.00;99069.72;5043858;28;20024;-78
2023/12/20 08:16:36;;;;;;;4.50;3.08;;;;;;;5.59;100.00;99078.34;5078274;28;20075;-79
2023/12/20 08:19:01;;;;;;;4.53;3.00;;;;;;;5.73;100.00;99082.22;5073007;28;20032;-76
2023/12/20 08:21:27;;;;;;;4.05;2.60;;;;;;;5.69;100.00;99080.88;5054456;28;20028;-78
2023/12/20 08:23:52;;;;;;;4.80;2.70;;;;;;;5.81;100.00;99065.28;5065101;28;20115;-73
2023/12/20 08:26:24;;;;;;;4.63;2.42;;;;;;;5.90;100.00;99089.28;5045573;28;20032;-73
2023/12/20 08:28:50;;;;;;;4.00;2.67;;;;;;;5.84;100.00;99083.75;5070430;28;20086;-77
2023/12/20 08:31:16;;;;;;;5.70;3.05;;;;;;;5.98;100.00;99093.03;5082263;28;20028;-77
2023/12/20 08:33:44;;;;;;;4.80;3.25;;;;;;;6.01;100.00;99090.00;5083338;28;20020;-79
2023/12/20 08:36:09;;;;;;;4.30;2.30;;;;;;;5.86;100.00;99079.03;5072186;28;20025;-81
2023/12/20 08:38:34;;;;;;;2.92;2.25;;;;;;;5.72;100.00;99091.28;5055395;28;20206;-80
2023/12/20 08:41:01;;;;;;;4.15;2.58;;;;;;;5.50;100.00;99063.22;5065281;28;20111;-79
2023/12/20 08:43:26;;;;;;;3.75;2.40;;;;;;;5.65;100.00;99098.31;5062475;28;20061;-79
2023/12/20 08:45:51;;;;;;;4.95;2.40;;;;;;;5.73;100.00;99109.06;5065215;28;20048;-76
2023/12/20 08:48:17;;;;;;;4.30;2.30;;;;;;;5.48;100.00;99086.72;5082940;28;20025;-76
2023/12/20 08:50:43;;;;;;;3.20;2.00;;;;;;;5.66;100.00;99108.06;5064636;28;20024;-78
2023/12/20 08:53:08;;;;;;;3.38;2.10;;;;;;;5.56;100.00;99085.91;5063674;28;20016;-76
2023/12/20 08:55:33;;;;;;;4.30;2.10;;;;;;;5.68;100.00;99073.81;5071298;28;20034;-76
2023/12/20 08:57:59;;;;;;;3.03;1.73;;;;;;;5.85;100.00;99094.31;5069984;28;20048;-76
2023/12/20 09:00:27;;;;;;;3.95;1.92;;;;;;;6.05;100.00;99075.22;5079278;28;20020;-76
2023/12/20 09:02:52;;;;;;;7.38;1.63;;;;;;;6.67;100.00;99070.13;5065664;28;20028;-75
2023/12/20 09:05:18;;;;;;;4.43;1.55;;;;;;;6.95;100.00;99056.28;5064131;28;20024;-76
2023/12/20 09:07:43;;;;;;;4.65;1.35;;;;;;;7.45;100.00;99063.09;5064581;28;20020;-76
2023/12/20 09:10:09;;;;;;;1.65;1.08;;;;;;;7.84;100.00;99060.31;5068790;28;20024;-77
2023/12/20 09:12:34;;;;;;;0.82;0.70;;;;;;;7.84;100.00;99035.25;5065700;28;20338;-78
2023/12/20 09:15:02;;;;;;;2.75;1.02;;;;;;;9.23;100.00;99047.31;5082420;28;20318;-77
2023/12/20 09:17:27;;;;;;;1.80;1.17;;;;;;;10.78;100.00;99029.66;5068183;28;20051;-78
2023/12/20 09:19:53;;;;;;;3.28;0.95;;;;;;;10.49;100.00;99037.78;5060424;28;20046;-76
2023/12/20 09:22:19;;;;;;;1.73;0.77;;;;;;;8.84;100.00;99051.16;5060536;28;20218;-77
2023/12/20 09:24:44;;;;;;;1.85;0.93;;;;;;;8.11;100.00;99058.09;5056486;28;20017;-76
2023/12/20 09:27:10;;;;;;;2.33;1.10;;;;;;;7.89;100.00;99052.53;5070602;28;20021;-77
2023/12/20 09:29:35;;;;;;;2.28;1.20;;;;;;;10.14;100.00;99050.38;5078290;28;20017;-79
2023/12/20 09:32:01;;;;;;;6.75;2.03;;;;;;;10.47;100.00;99037.13;5066173;28;20412;-78
2023/12/20 09:34:26;;;;;;;2.25;1.63;;;;;;;13.44;100.00;99048.88;5059002;28;20024;-76
2023/12/20 09:36:52;;;;;;;3.22;1.67;;;;;;;12.90;100.00;99048.22;5084953;28;20028;-76
2023/12/20 09:39:19;;;;;;;4.25;1.13;;;;;;;12.64;100.00;99057.25;5077978;28;20036;-77
2023/12/20 09:41:49;;;;;;;3.08;1.60;;;;;;;10.80;100.00;99060.88;5051359;28;20028;-78
2023/12/20 09:44:17;;;;;;;4.18;1.77;;;;;;;9.56;100.00;99063.06;5080502;28;20279;-77
2023/12/20 09:46:45;;;;;;;3.90;1.63;;;;;;;9.32;100.00;99070.47;5084377;28;20035;-77
2023/12/20 09:49:12;;;;;;;2.30;1.40;;;;;;;9.30;100.00;99069.84;5086098;28;20015;-76
2023/12/20 09:51:38;;;;;;;5.15;1.45;;;;;;;10.45;100.00;99049.19;5062336;28;20028;-76
2023/12/20 09:54:04;;;;;;;5.25;1.60;;;;;;;10.76;100.00;99059.59;5085790;28;20090;-77
2023/12/20 09:56:30;;;;;;;10.15;3.40;;;;;;;10.92;100.00;99053.03;5058081;28;20135;-76
2023/12/20 09:58:56;;;;;;;8.90;3.25;;;;;;;13.41;100.00;99071.91;5066555;28;20095;-76
2023/12/20 10:01:22;;;;;;;12.93;5.95;;;;;;;14.80;100.00;99058.44;5079489;28;20066;-78
2023/12/20 10:03:47;;;;;;;4.35;1.50;;;;;;;16.11;87.81;99045.28;5050946;28;20096;-77
2023/12/20 10:06:13;;;;;;;3.42;1.77;;;;;;;15.28;88.60;99063.19;5051309;28;20024;-77
2023/12/20 10:08:39;;;;;;;7.55;1.90;;;;;;;14.42;94.75;99068.38;5063455;28;20017;-77
2023/12/20 10:11:05;;;;;;;2.88;1.13;;;;;;;14.44;93.35;99033.59;5066983;28;20016;-77
2023/12/20 10:13:30;;;;;;;15.77;7.22;;;;;;;13.81;99.00;99058.97;5076172;28;20017;-78
2023/12/20 10:15:57;;;;;;;5.10;2.10;;;;;;;14.06;94.06;99038.28;5061199;28;20028;-78
2023/12/20 10:18:22;;;;;;;3.75;0.80;;;;;;;14.05;100.00;99053.78;5067390;28;20024;-77
2023/12/20 10:20:48;;;;;;;1.90;0.80;;;;;;;13.84;94.64;99046.81;5067391;28;20036;-78
2023/12/20 10:23:15;;;;;;;4.55;1.10;;;;;;;12.41;100.00;99063.09;5065571;28;20031;-78
2023/12/20 10:25:43;;;;;;;5.22;0.90;;;;;;;9.53;100.00;99056.19;5065878;28;20156;-79
2023/12/20 10:28:18;;;;;;;4.18;0.90;;;;;;;8.71;100.00;99059.91;5086305;28;20028;-79
2023/12/20 10:30:44;;;;;;;6.50;1.00;;;;;;;10.19;100.00;99041.66;5062416;28;20048;-79
2023/12/20 10:33:10;;;;;;;8.77;1.30;;;;;;;12.63;100.00;99034.69;5067482;28;20020;-79
2023/12/20 10:35:38;;;;;;;5.05;0.90;;;;;;;14.89;94.69;99040.75;5064323;28;20026;-81
2023/12/20 10:38:06;;;;;;;1.97;0.67;;;;;;;15.49;79.62;99037.34;5068465;28;20025;-80
2023/12/20 10:40:34;;;;;;;5.53;1.40;;;;;;;16.14;79.85;99029.28;5068410;28;20028;-81
2023/12/20 10:43:02;;;;;;;5.40;1.97;;;;;;;15.98;75.12;99036.25;5082890;28;20084;-80
2023/12/20 10:45:27;;;;;;;3.97;1.20;;;;;;;17.51;70.02;99027.22;5065487;28;20029;-81
2023/12/20 10:47:52;;;;;;;6.22;1.05;;;;;;;16.97;68.23;99021.16;5052202;28;20101;-81
2023/12/20 10:50:19;;;;;;;5.82;0.90;;;;;;;15.48;70.67;99047.41;5086274;28;20040;-80
2023/12/20 10:52:46;;;;;;;6.13;0.90;;;;;;;16.84;69.46;99038.63;5063374;28;20059;-81
2023/12/20 10:55:33;;;;;;;4.72;1.00;;;;;;;15.12;72.24;99045.53;5068094;28;20074;-79
2023/12/20 10:58:01;;;;;;;4.95;0.93;;;;;;;12.90;86.06;99030.03;5067964;28;20016;-79
2023/12/20 11:00:28;;;;;;;4.97;1.33;;;;;;;10.97;100.00;99040.56;5070603;28;20095;-84
2023/12/20 11:02:56;;;;;;;3.40;1.00;;;;;;;10.27;100.00;99033.41;5068715;28;20016;-84
2023/12/20 11:05:46;;;;;;;6.85;0.98;;;;;;;9.66;100.00;99047.38;5079685;28;20142;-82
2023/12/20 11:08:46;;;;;;;7.22;1.00;;;;;;;9.28;100.00;99025.16;5078790;28;20021;-81
2023/12/20 11:11:18;;;;;;;6.43;1.27;;;;;;;9.11;100.00;99017.25;5080318;22;20332;-49
2023/12/20 11:13:54;;;;;;;1.90;0.80;;;;;;;9.39;100.00;99041.69;5062110;28;20040;-49
2023/12/20 11:16:20;;;;;;;6.28;1.10;;;;;;;8.90;100.00;99034.22;5042876;28;20021;-50
2023/12/20 11:18:47;;;;;;;4.40;0.90;;;;;;;8.89;100.00;99040.66;5031832;28;20052;-49
2023/12/20 11:21:14;;;;;;;5.35;1.48;;;;;;;8.35;100.00;99036.28;5040137;28;20030;-50
2023/12/20 11:23:42;;;;;;;6.80;1.27;;;;;;;7.94;100.00;99033.16;5030052;28;20070;-50
2023/12/20 11:26:08;;;;;;;7.47;1.05;;;;;;;7.63;100.00;99034.03;5061922;28;20483;-49